Aérodrome :
LOGIN :

S'inscrire | Disclaimer

   EN    FR    IT 

 










Légende :    VFR   VFR Marginal   IFR   IFR Intensif   IFR Très Intensif
Visi : 
Plafond : 
>= 8 km
>= 3000ft
5 à 8 km
1000 à 3000 ft
1500m à 5 km
500 à 1000 ft
800 à 1500m
200 à 500 ft
< 800m
< 200 ft
Symboles :   Orages  Brouillard  Fortes neiges  Fortes précipitations  Vent > 20 kt
SIGMETs :   Divers  Orages  Givrage  Turbulence  Onde Orograph.  Cendres Volcan.







- Altitude de l'aérodrome : 25 ft
- Code IATA : TPS


LICT - Vincenzo Florio Trapani

DERNIER METAR :
  • 180555Z 15005KT 9999 FEW022 SCT025 11/11 Q1014

METARs EXPIRÉS :
  • 180455Z 13003KT 9999 FEW022 12/12 Q1014
  • 180355Z 11002KT 9999 FEW022 10/08 Q1014

TAF TAF LICT
Valide du 18 à 06h jusqu'au 18 à 15h UTC


180500Z 1806/1815 34012KT 9999 SCT020
Pas de NOTAMs connus pour ce terrain.
1 SIGMET publié pour la FIR Roma (LIRR) :
 
Turbulence forte
LIRR SIGMET 2 VALID 180600/181000 LIIB
LIRR ROMA FIR SEV TURB FCST WI N3852 E01859 - N3853 E01710 - N3900 E01628 - N3743 E01657 - N3742 E01859 - N3852 E01859 BLW FL180 MOV SE NC=



MET'MAP, la Météo Aéronautique d'un coup d'oeil ! - Copyright ORBIFLY Décembre 2007 - Disclaimer

ORBIFLY MET'MAP TEAM :

Programmation & Développement : Alexandra Zaïnal
Conception & Développement : Baudouin d'Aumeries
Co-Programmation & Développement : Marc-Olivier Méhu
Soutien technique & logistique : Manuel Goepfert

Contact : metmap@orbifly.com




SOURCES & CREDITS :

   NOAA